Time;durP1;ratioP1;P1;durP2;ratioP2;P2;SDS_P1;SDS_P2;PMS_P1;PMS_P2;Temp;Humidity;BMP_temperature;BMP_pressure;BME280_temperature;BME280_humidity;BME280_pressure;Samples;Min_cycle;Max_cycle;Signal;HPM_P1;HPM_P2
2022/08/25 00:01:13;;;;;;;3.25;2.10;;;;;;;-148.56;100.00;61375.16;5029703;28;20120;-28
2022/08/25 00:04:37;;;;;;;5.85;2.20;;;;;;;-148.56;100.00;61375.16;5031584;28;20029;-28
2022/08/25 00:08:03;;;;;;;2.35;1.80;;;;;;;-148.56;100.00;61375.16;5027986;28;20056;-28
2022/08/25 00:11:27;;;;;;;5.30;1.90;;;;;;;-148.56;100.00;61375.16;5028588;28;20036;-28
2022/08/25 00:14:58;;;;;;;2.95;2.05;;;;;;;-148.56;100.00;61375.16;5028983;28;20037;-29
2022/08/25 00:18:22;;;;;;;2.35;1.92;;;;;;;-148.56;100.00;61375.16;5030710;28;20029;-28
2022/08/25 00:21:46;;;;;;;2.60;1.65;;;;;;;-148.56;100.00;61375.16;5030810;28;20021;-29
2022/08/25 00:25:11;;;;;;;2.05;1.85;;;;;;;-148.56;100.00;61375.16;5025409;28;20029;-28
2022/08/25 00:28:35;;;;;;;2.80;1.90;;;;;;;-148.56;100.00;61375.16;5028900;28;20045;-28
2022/08/25 00:31:59;;;;;;;3.38;2.10;;;;;;;-148.56;100.00;61375.16;5026632;28;20037;-29
2022/08/25 00:35:25;;;;;;;4.90;2.35;;;;;;;-148.56;100.00;61375.16;5025256;28;20040;-29
2022/08/25 00:38:49;;;;;;;4.90;2.40;;;;;;;-148.56;100.00;61375.16;5027115;28;20033;-28
2022/08/25 00:42:15;;;;;;;3.67;2.15;;;;;;;-148.56;100.00;61375.16;5027400;28;20164;-28
2022/08/25 00:45:39;;;;;;;3.90;2.17;;;;;;;-148.56;100.00;61375.16;5026000;28;20033;-29
2022/08/25 00:49:12;;;;;;;3.78;2.30;;;;;;;-148.56;100.00;61375.16;5026384;28;20127;-29
2022/08/25 00:52:42;;;;;;;3.88;1.90;;;;;;;-148.56;100.00;61375.16;5023844;28;20029;-27
2022/08/25 00:56:11;;;;;;;2.47;2.00;;;;;;;-148.56;100.00;61375.16;5022522;28;20156;-30
2022/08/25 00:59:35;;;;;;;2.95;2.10;;;;;;;-148.56;100.00;61375.16;5022671;28;20614;-30
2022/08/25 01:02:59;;;;;;;4.53;2.10;;;;;;;-148.56;100.00;61375.16;5032806;28;20025;-30
2022/08/25 01:06:23;;;;;;;4.22;2.10;;;;;;;-148.56;100.00;61375.16;5023513;28;20044;-27
2022/08/25 01:09:48;;;;;;;3.13;2.25;;;;;;;-148.56;100.00;61375.16;5023237;28;20029;-28
2022/08/25 01:13:18;;;;;;;3.88;2.10;;;;;;;-148.56;100.00;61375.16;5025885;28;20123;-28
2022/08/25 01:16:43;;;;;;;2.95;2.13;;;;;;;-148.56;100.00;61375.16;5028623;28;20029;-28
2022/08/25 01:20:07;;;;;;;3.45;2.15;;;;;;;-148.56;100.00;61375.16;5027521;28;20033;-29
2022/08/25 01:23:31;;;;;;;4.65;2.00;;;;;;;-148.56;100.00;61375.16;5027216;28;20060;-29
2022/08/25 01:27:12;;;;;;;4.18;1.90;;;;;;;-148.56;100.00;61375.16;5034629;28;20054;-28
2022/08/25 01:30:36;;;;;;;3.00;2.00;;;;;;;-148.56;100.00;61375.16;5027967;28;20025;-29
2022/08/25 01:34:02;;;;;;;2.83;1.83;;;;;;;-148.56;100.00;61375.16;5031190;28;20041;-29
2022/08/25 01:37:26;;;;;;;5.78;1.98;;;;;;;-148.56;100.00;61375.16;5028718;28;21821;-31
2022/08/25 01:40:50;;;;;;;2.63;1.95;;;;;;;-148.56;100.00;61375.16;5029916;28;20064;-27
2022/08/25 01:44:18;;;;;;;2.08;1.90;;;;;;;-148.56;100.00;61375.16;5030913;28;20023;-28
2022/08/25 01:47:42;;;;;;;3.00;2.03;;;;;;;-148.56;100.00;61375.16;5034907;28;20037;-28
2022/08/25 01:51:06;;;;;;;3.00;2.00;;;;;;;-148.56;100.00;61375.16;5034616;28;20029;-28
2022/08/25 01:54:30;;;;;;;2.47;2.15;;;;;;;-148.56;100.00;61375.16;5033621;28;20107;-29
2022/08/25 01:57:55;;;;;;;3.05;2.00;;;;;;;-148.56;100.00;61375.16;5027981;28;20108;-30
2022/08/25 02:01:21;;;;;;;3.60;2.25;;;;;;;-148.56;100.00;61375.16;5025248;28;20030;-28
2022/08/25 02:04:47;;;;;;;2.97;1.85;;;;;;;-148.56;100.00;61375.16;5030484;28;20040;-27
2022/08/25 02:08:11;;;;;;;2.58;1.90;;;;;;;-148.56;100.00;61375.16;5030545;28;20029;-28
2022/08/25 02:11:36;;;;;;;3.42;2.13;;;;;;;-148.56;100.00;61375.16;5032258;28;20033;-29
2022/08/25 02:15:00;;;;;;;2.35;2.10;;;;;;;-148.56;100.00;61375.16;5030325;28;20033;-27
2022/08/25 02:18:25;;;;;;;2.53;2.10;;;;;;;-148.56;100.00;61375.16;5029556;28;20040;-28
2022/08/25 02:21:48;;;;;;;2.40;2.20;;;;;;;-148.56;100.00;61375.16;5031578;28;20610;-29
2022/08/25 02:25:12;;;;;;;2.65;2.00;;;;;;;-148.56;100.00;61375.16;5030785;28;20033;-28
2022/08/25 02:28:36;;;;;;;3.10;2.05;;;;;;;-148.56;100.00;61375.16;5021784;28;20033;-28
2022/08/25 02:32:01;;;;;;;2.90;2.20;;;;;;;-148.56;100.00;61375.16;5030615;28;20714;-29
2022/08/25 02:35:25;;;;;;;2.28;1.92;;;;;;;-148.56;100.00;61375.16;5029115;28;20040;-30
2022/08/25 02:38:49;;;;;;;2.33;2.03;;;;;;;-148.56;100.00;61375.16;5032257;28;20032;-27
2022/08/25 02:42:14;;;;;;;2.95;2.00;;;;;;;-148.56;100.00;61375.16;5030742;28;20406;-28
2022/08/25 02:45:38;;;;;;;2.65;2.30;;;;;;;-148.56;100.00;61375.16;5030180;28;20037;-28
2022/08/25 02:49:02;;;;;;;2.95;2.00;;;;;;;-148.56;100.00;61375.16;5027332;28;20936;-28
2022/08/25 02:52:26;;;;;;;2.25;2.00;;;;;;;-148.56;100.00;61375.16;5031030;28;20369;-29
2022/08/25 02:55:50;;;;;;;2.60;1.88;;;;;;;-148.56;100.00;61375.16;5028043;28;20033;-31
2022/08/25 02:59:14;;;;;;;6.25;2.30;;;;;;;-148.56;100.00;61375.16;5029284;28;20528;-29
2022/08/25 03:02:40;;;;;;;2.55;2.05;;;;;;;-148.56;100.00;61375.16;5028879;28;20115;-29
2022/08/25 03:06:04;;;;;;;3.80;2.00;;;;;;;-148.56;100.00;61375.16;5028727;28;20086;-28
2022/08/25 03:09:28;;;;;;;3.33;2.10;;;;;;;-148.56;100.00;61375.16;5029366;28;20045;-30
2022/08/25 03:12:52;;;;;;;4.22;2.10;;;;;;;-148.56;100.00;61375.16;5030261;28;20060;-28
2022/08/25 03:16:16;;;;;;;3.72;1.98;;;;;;;-148.56;100.00;61375.16;5024517;28;20029;-28
2022/08/25 03:19:40;;;;;;;3.95;2.25;;;;;;;-148.56;100.00;61375.16;5031315;28;20025;-29
2022/08/25 03:23:04;;;;;;;4.70;2.05;;;;;;;-148.56;100.00;61375.16;5031350;28;20713;-28
2022/08/25 03:30:10;;;;;;;4.47;2.15;;;;;;;-148.56;100.00;61375.16;5027822;28;20469;-28
2022/08/25 03:33:34;;;;;;;3.45;2.15;;;;;;;-148.56;100.00;61375.16;5028021;28;20063;-29
2022/08/25 03:36:58;;;;;;;2.30;1.88;;;;;;;-148.56;100.00;61375.16;5026317;28;20029;-29
2022/08/25 03:40:22;;;;;;;3.15;2.13;;;;;;;-148.56;100.00;61375.16;5030074;28;20036;-29
2022/08/25 03:43:46;;;;;;;3.53;2.13;;;;;;;-148.56;100.00;61375.16;5028112;28;20029;-28
2022/08/25 03:47:14;;;;;;;3.00;2.28;;;;;;;-148.56;100.00;61375.16;5030214;28;20550;-29
2022/08/25 03:50:43;;;;;;;3.42;2.28;;;;;;;-148.56;100.00;61375.16;5031855;28;20132;-30
2022/08/25 03:54:08;;;;;;;3.35;2.28;;;;;;;-148.56;100.00;61375.16;5031209;28;20037;-30
2022/08/25 03:57:31;;;;;;;4.53;2.20;;;;;;;-148.56;100.00;61375.16;5029634;28;20069;-30
2022/08/25 04:00:59;;;;;;;2.28;1.98;;;;;;;-148.56;100.00;61375.16;5025087;28;20500;-29
2022/08/25 04:04:22;;;;;;;3.67;2.25;;;;;;;-148.56;100.00;61375.16;5031861;28;20598;-29
2022/08/25 04:07:46;;;;;;;5.57;2.28;;;;;;;-148.56;100.00;61375.16;5028668;28;20033;-28
2022/08/25 04:11:12;;;;;;;5.53;2.45;;;;;;;-148.56;100.00;61375.16;5029461;28;20026;-30
2022/08/25 04:14:36;;;;;;;6.03;2.40;;;;;;;-148.56;100.00;61375.16;5031333;28;20120;-29
2022/08/25 04:17:59;;;;;;;2.95;2.20;;;;;;;-148.56;100.00;61375.16;5025662;28;20077;-28
2022/08/25 04:21:23;;;;;;;2.58;2.38;;;;;;;-148.56;100.00;61375.16;5028447;28;20068;-29
2022/08/25 04:24:47;;;;;;;4.53;2.17;;;;;;;-148.56;100.00;61375.16;5027849;28;20076;-29
2022/08/25 04:28:11;;;;;;;4.55;2.40;;;;;;;-148.56;100.00;61375.16;5029494;28;20079;-29
2022/08/25 04:31:39;;;;;;;3.10;2.03;;;;;;;-148.56;100.00;61375.16;5029260;28;20033;-29
2022/08/25 04:35:03;;;;;;;2.60;2.20;;;;;;;-148.56;100.00;61375.16;5027172;28;20094;-29
2022/08/25 04:38:28;;;;;;;4.90;2.10;;;;;;;-148.56;100.00;61375.16;5027302;28;20601;-28
2022/08/25 04:41:55;;;;;;;2.72;2.10;;;;;;;-148.56;100.00;61375.16;5027073;28;20439;-29
2022/08/25 04:45:19;;;;;;;4.40;2.00;;;;;;;-148.56;100.00;61375.16;5027396;28;20758;-28
2022/08/25 04:48:43;;;;;;;3.40;2.08;;;;;;;-148.56;100.00;61375.16;5030267;28;20360;-29
2022/08/25 04:52:08;;;;;;;5.05;2.30;;;;;;;-148.56;100.00;61375.16;5027417;28;20025;-29
2022/08/25 04:55:31;;;;;;;3.20;2.47;;;;;;;-148.56;100.00;61375.16;5025496;28;20032;-29
2022/08/25 04:58:55;;;;;;;5.72;2.20;;;;;;;-148.56;100.00;61375.16;5025029;28;20029;-27
2022/08/25 05:02:21;;;;;;;5.90;2.20;;;;;;;-148.56;100.00;61375.16;5026300;28;20029;-30
2022/08/25 05:05:45;;;;;;;2.33;2.10;;;;;;;-148.56;100.00;61375.16;5029720;28;20492;-29
2022/08/25 05:09:08;;;;;;;3.22;2.30;;;;;;;-148.56;100.00;61375.16;5025077;28;20148;-29
2022/08/25 05:12:33;;;;;;;4.97;2.17;;;;;;;-148.56;100.00;61375.16;5027575;28;20048;-29
2022/08/25 05:15:57;;;;;;;2.97;2.40;;;;;;;-148.56;100.00;61375.16;5030046;28;20029;-28
2022/08/25 05:19:22;;;;;;;6.03;2.40;;;;;;;-148.56;100.00;61375.16;5028513;28;20033;-29
2022/08/25 05:22:46;;;;;;;4.55;2.30;;;;;;;-148.56;100.00;61375.16;5028859;28;20112;-29
2022/08/25 05:26:11;;;;;;;3.38;2.38;;;;;;;-148.56;100.00;61375.16;5028147;28;20086;-29
2022/08/25 05:29:35;;;;;;;3.60;2.20;;;;;;;-148.56;100.00;61375.16;5028749;28;20037;-28
2022/08/25 05:33:00;;;;;;;2.20;2.00;;;;;;;-148.56;100.00;61375.16;5028361;28;20021;-28
2022/08/25 05:36:25;;;;;;;2.65;2.15;;;;;;;-148.56;100.00;61375.16;5027494;28;20033;-29
2022/08/25 05:39:48;;;;;;;3.00;2.15;;;;;;;-148.56;100.00;61375.16;5025943;28;20064;-29
2022/08/25 05:43:14;;;;;;;5.45;2.17;;;;;;;-148.56;100.00;61375.16;5026716;28;20503;-29
2022/08/25 05:46:38;;;;;;;2.80;2.28;;;;;;;-148.56;100.00;61375.16;5028848;28;20032;-29
2022/08/25 05:50:02;;;;;;;4.97;2.17;;;;;;;-148.56;100.00;61375.16;5024543;28;20497;-28
2022/08/25 05:53:26;;;;;;;2.90;2.20;;;;;;;-148.56;100.00;61375.16;5026978;28;20037;-29
2022/08/25 05:56:50;;;;;;;2.35;2.00;;;;;;;-148.56;100.00;61375.16;5025879;28;20033;-29
2022/08/25 06:00:14;;;;;;;6.35;2.50;;;;;;;-148.56;100.00;61375.16;5028310;28;20053;-30
2022/08/25 06:03:38;;;;;;;2.45;2.25;;;;;;;-148.56;100.00;61375.16;5023420;28;20344;-30
2022/08/25 06:07:03;;;;;;;4.53;2.20;;;;;;;-148.56;100.00;61375.16;5021740;28;20067;-29
2022/08/25 06:10:27;;;;;;;3.83;2.50;;;;;;;-148.56;100.00;61375.16;5030730;28;20037;-29
2022/08/25 06:13:51;;;;;;;3.63;2.72;;;;;;;-148.56;100.00;61375.16;5031050;28;20016;-30
2022/08/25 06:17:14;;;;;;;2.35;2.00;;;;;;;-148.56;100.00;61375.16;5027136;28;20040;-29
2022/08/25 06:20:38;;;;;;;3.47;2.55;;;;;;;-148.56;100.00;61375.16;5031147;28;20526;-29
2022/08/25 06:24:02;;;;;;;2.47;2.10;;;;;;;-148.56;100.00;61375.16;5028189;28;20064;-29
2022/08/25 06:27:26;;;;;;;2.55;2.10;;;;;;;-148.56;100.00;61375.16;5031156;28;20037;-29
2022/08/25 06:30:50;;;;;;;3.53;2.25;;;;;;;-148.56;100.00;61375.16;5029083;28;20056;-29
2022/08/25 06:34:14;;;;;;;3.00;2.28;;;;;;;-148.56;100.00;61375.16;5026418;28;20037;-29
2022/08/25 06:37:38;;;;;;;5.40;2.75;;;;;;;-148.56;100.00;61375.16;5033926;28;20051;-29
2022/08/25 06:41:03;;;;;;;6.95;3.10;;;;;;;-148.56;100.00;61375.16;5026953;28;20033;-29
2022/08/25 06:44:27;;;;;;;10.57;3.20;;;;;;;-148.56;100.00;61375.16;5028166;28;20175;-28
2022/08/25 06:47:51;;;;;;;7.07;3.55;;;;;;;-148.56;100.00;61375.16;5028450;28;20032;-28
2022/08/25 06:51:16;;;;;;;9.40;3.85;;;;;;;-148.56;100.00;61375.16;5028061;28;20017;-28
2022/08/25 06:54:40;;;;;;;5.35;4.00;;;;;;;-148.56;100.00;61375.16;5028689;28;20029;-28
2022/08/25 06:58:04;;;;;;;5.90;3.83;;;;;;;-148.56;100.00;61375.16;5026858;28;20112;-28
2022/08/25 07:01:29;;;;;;;4.88;3.92;;;;;;;-148.56;100.00;61375.16;5023168;28;20512;-28
2022/08/25 07:04:53;;;;;;;11.25;4.95;;;;;;;-148.56;100.00;61375.16;5024386;28;20451;-28
2022/08/25 07:08:18;;;;;;;12.32;5.43;;;;;;;-148.56;100.00;61375.16;5028115;28;20105;-28
2022/08/25 07:11:42;;;;;;;9.75;3.92;;;;;;;-148.56;100.00;61375.16;5026734;28;20037;-27
2022/08/25 07:15:06;;;;;;;9.60;4.28;;;;;;;-148.56;100.00;61375.16;5025594;28;20033;-27
2022/08/25 07:18:30;;;;;;;13.45;4.70;;;;;;;-148.56;100.00;61375.16;5021299;28;20507;-27
2022/08/25 07:21:54;;;;;;;16.75;4.63;;;;;;;-148.56;100.00;61375.16;5023396;28;20404;-27
2022/08/25 07:25:18;;;;;;;7.80;4.80;;;;;;;-148.56;100.00;61375.16;5027861;28;20094;-26
2022/08/25 07:28:42;;;;;;;7.35;4.22;;;;;;;-148.56;100.00;61375.16;5026373;28;20053;-26
2022/08/25 07:32:06;;;;;;;7.57;4.00;;;;;;;-148.56;100.00;61375.16;5024567;28;20511;-27
2022/08/25 07:35:31;;;;;;;6.07;4.53;;;;;;;-148.56;100.00;61375.16;5027700;28;20480;-27
2022/08/25 07:38:55;;;;;;;10.57;4.97;;;;;;;-148.56;100.00;61375.16;5023653;28;20110;-28
2022/08/25 07:42:19;;;;;;;7.15;4.43;;;;;;;-148.56;100.00;61375.16;5023948;28;20045;-27
2022/08/25 07:45:43;;;;;;;6.40;4.57;;;;;;;-148.56;100.00;61375.16;5026135;28;20029;-28
2022/08/25 07:49:07;;;;;;;9.30;4.75;;;;;;;-148.56;100.00;61375.16;5028069;28;21928;-27
2022/08/25 07:52:32;;;;;;;6.90;4.28;;;;;;;-148.56;100.00;61375.16;5031822;28;20029;-28
2022/08/25 07:55:56;;;;;;;8.20;4.70;;;;;;;-148.56;100.00;61375.16;5027587;28;20275;-28
2022/08/25 07:59:20;;;;;;;9.25;4.82;;;;;;;-148.56;100.00;61375.16;5025613;28;20463;-27
2022/08/25 08:02:43;;;;;;;7.57;4.07;;;;;;;-148.56;100.00;61375.16;5023419;28;20069;-27
2022/08/25 08:06:08;;;;;;;6.30;4.30;;;;;;;-148.56;100.00;61375.16;5042915;28;21080;-27
2022/08/25 08:09:34;;;;;;;5.43;4.72;;;;;;;-148.56;100.00;61375.16;5027615;28;20025;-27
2022/08/25 08:12:58;;;;;;;8.07;4.38;;;;;;;-148.56;100.00;61375.16;5024691;28;20556;-27
2022/08/25 08:16:22;;;;;;;8.32;4.68;;;;;;;-148.56;100.00;61375.16;5028718;28;20669;-27
2022/08/25 08:19:46;;;;;;;9.68;4.30;;;;;;;-148.56;100.00;61375.16;5024635;28;20257;-27
2022/08/25 08:23:10;;;;;;;6.32;4.63;;;;;;;-148.56;100.00;61375.16;5025708;28;20179;-27
2022/08/25 08:26:34;;;;;;;6.53;4.65;;;;;;;-148.56;100.00;61375.16;5027665;28;20041;-27
2022/08/25 08:29:59;;;;;;;6.00;4.00;;;;;;;-148.56;100.00;61375.16;5029284;28;20033;-28
2022/08/25 08:33:23;;;;;;;7.15;4.20;;;;;;;-148.56;100.00;61375.16;5024524;28;20118;-27
2022/08/25 08:36:52;;;;;;;6.28;4.30;;;;;;;-148.56;100.00;61375.16;5022776;28;20044;-27
2022/08/25 08:40:17;;;;;;;6.32;4.15;;;;;;;-148.56;100.00;61375.16;5025036;28;20110;-27
2022/08/25 08:44:08;;;;;;;7.82;4.50;;;;;;;-148.56;100.00;61375.16;5021070;28;20044;-27
2022/08/25 08:47:43;;;;;;;6.70;4.25;;;;;;;-148.56;100.00;61375.16;5013174;28;20033;-27
2022/08/25 08:51:20;;;;;;;6.60;4.57;;;;;;;-148.56;100.00;61375.16;5025824;28;20035;-27
2022/08/25 08:54:59;;;;;;;5.68;4.57;;;;;;;-148.56;100.00;61375.16;5025104;28;20134;-27
2022/08/25 08:58:23;;;;;;;6.45;4.53;;;;;;;-148.56;100.00;61375.16;5017126;28;20043;-28
2022/08/25 09:01:58;;;;;;;8.25;4.70;;;;;;;-148.56;100.00;61375.16;5017023;28;20162;-28
2022/08/25 09:05:45;;;;;;;7.18;4.45;;;;;;;-148.56;100.00;61375.16;5022921;28;20415;-27
2022/08/25 09:09:19;;;;;;;7.28;4.20;;;;;;;-148.56;100.00;61375.16;5020170;28;21294;-28
2022/08/25 09:13:10;;;;;;;12.57;4.70;;;;;;;-148.56;100.00;61375.16;5023766;28;20033;-29
2022/08/25 09:16:54;;;;;;;8.35;4.28;;;;;;;-148.56;100.00;61375.16;5023678;28;20515;-27
2022/08/25 09:20:27;;;;;;;7.25;4.05;;;;;;;-148.56;100.00;61375.16;5024267;28;20041;-27
2022/08/25 09:24:33;;;;;;;9.60;4.05;;;;;;;-148.56;100.00;61375.16;5018452;28;20025;-27
2022/08/25 09:28:01;;;;;;;7.30;4.50;;;;;;;-148.56;100.00;61375.16;5018564;28;20082;-28
2022/08/25 09:31:25;;;;;;;8.38;4.47;;;;;;;-148.56;100.00;61375.16;5020484;28;20047;-27
2022/08/25 09:34:53;;;;;;;5.65;4.07;;;;;;;-148.56;100.00;61375.16;5021087;28;20029;-27
2022/08/25 09:38:18;;;;;;;6.22;4.47;;;;;;;-148.56;100.00;61375.16;5026082;28;20033;-27
2022/08/25 09:41:48;;;;;;;7.13;4.85;;;;;;;-148.56;100.00;61375.16;5024807;28;20520;-27
2022/08/25 09:45:37;;;;;;;10.52;4.65;;;;;;;-148.56;100.00;61375.16;5029435;28;20112;-26
2022/08/25 09:49:10;;;;;;;8.75;4.75;;;;;;;-148.56;100.00;61375.16;5027354;28;20075;-27
2022/08/25 09:52:38;;;;;;;8.55;4.82;;;;;;;-148.56;100.00;61375.16;5027084;28;20048;-27
2022/08/25 09:56:04;;;;;;;9.20;5.15;;;;;;;-148.56;100.00;61375.16;5027762;28;20025;-27
2022/08/25 09:59:29;;;;;;;8.15;4.55;;;;;;;-148.56;100.00;61375.16;5029861;28;20024;-27
2022/08/25 10:03:00;;;;;;;7.57;5.10;;;;;;;-148.56;100.00;61375.16;5029443;28;20049;-27
2022/08/25 10:06:24;;;;;;;10.15;5.00;;;;;;;-148.56;100.00;61375.16;5030406;28;20048;-27
2022/08/25 10:09:52;;;;;;;7.00;4.50;;;;;;;-148.56;100.00;61375.16;5033652;28;20112;-28
2022/08/25 10:13:18;;;;;;;8.15;4.88;;;;;;;-148.56;100.00;61375.16;5026318;28;21883;-27
2022/08/25 10:16:42;;;;;;;6.70;4.55;;;;;;;-148.56;100.00;61375.16;5028500;28;20038;-29
2022/08/25 10:20:10;;;;;;;6.63;4.45;;;;;;;-148.56;100.00;61375.16;5029851;28;20029;-28
2022/08/25 10:23:35;;;;;;;9.45;5.03;;;;;;;-148.56;100.00;61375.16;5033027;28;20029;-27
2022/08/25 10:27:06;;;;;;;7.47;4.47;;;;;;;-148.56;100.00;61375.16;5032657;28;20618;-27
2022/08/25 10:30:55;;;;;;;5.75;4.43;;;;;;;-148.56;100.00;61375.16;5031021;28;20082;-31
2022/08/25 10:34:50;;;;;;;8.20;4.80;;;;;;;-148.56;100.00;61375.16;5031576;28;20040;-30
2022/08/25 10:38:31;;;;;;;5.82;4.38;;;;;;;-148.56;100.00;61375.16;5028158;28;20116;-28
2022/08/25 10:42:14;;;;;;;5.90;4.32;;;;;;;-148.56;100.00;61375.16;5026916;28;20099;-29
2022/08/25 10:45:57;;;;;;;6.20;4.47;;;;;;;-148.56;100.00;61375.16;5022253;28;20021;-27
2022/08/25 10:49:42;;;;;;;6.18;4.25;;;;;;;-148.56;100.00;61375.16;5027005;28;20057;-27
2022/08/25 10:53:13;;;;;;;6.18;4.20;;;;;;;-148.56;100.00;61375.16;5028661;28;20782;-28
2022/08/25 10:56:40;;;;;;;6.45;4.03;;;;;;;-148.56;100.00;61375.16;5026084;28;20025;-27
2022/08/25 11:00:23;;;;;;;7.00;4.25;;;;;;;-148.56;100.00;61375.16;5028242;28;20037;-27
2022/08/25 11:04:24;;;;;;;4.80;3.70;;;;;;;-148.56;100.00;61375.16;5027700;28;20033;-28
2022/08/25 11:08:12;;;;;;;5.65;3.67;;;;;;;-148.56;100.00;61375.16;5026882;28;20033;-28
2022/08/25 11:11:39;;;;;;;7.72;4.22;;;;;;;-148.56;100.00;61375.16;5027664;28;20099;-27
2022/08/25 11:15:32;;;;;;;4.28;3.60;;;;;;;-148.56;100.00;61375.16;5027662;28;20776;-28
2022/08/25 11:19:05;;;;;;;4.53;3.53;;;;;;;-148.56;100.00;61375.16;5026079;28;20049;-28
2022/08/25 11:22:35;;;;;;;5.03;3.60;;;;;;;-148.56;100.00;61375.16;5028115;28;20033;-27
2022/08/25 11:26:14;;;;;;;3.92;3.42;;;;;;;-148.56;100.00;61375.16;5027052;28;20048;-28
2022/08/25 11:29:37;;;;;;;4.45;3.50;;;;;;;-148.56;100.00;61375.16;5028010;28;20585;-27
2022/08/25 11:33:01;;;;;;;4.90;3.63;;;;;;;-148.56;100.00;61375.16;5028995;28;20156;-27
2022/08/25 11:36:49;;;;;;;4.07;3.47;;;;;;;-148.56;100.00;61375.16;5022620;28;20037;-27
2022/08/25 11:40:16;;;;;;;4.90;3.65;;;;;;;-148.56;100.00;61375.16;5028965;28;20034;-28
2022/08/25 11:43:39;;;;;;;4.75;3.63;;;;;;;-148.56;100.00;61375.16;5027488;28;20879;-27
2022/08/25 11:47:09;;;;;;;4.75;3.33;;;;;;;-148.56;100.00;61375.16;5027005;28;20074;-28
2022/08/25 11:50:54;;;;;;;5.93;3.53;;;;;;;-148.56;100.00;61375.16;5028945;28;20021;-27
2022/08/25 11:54:43;;;;;;;4.63;3.58;;;;;;;-148.56;100.00;61375.16;5026024;28;20144;-28
2022/08/25 11:58:15;;;;;;;4.13;3.20;;;;;;;-148.56;100.00;61375.16;5028232;28;20036;-30
2022/08/25 12:01:39;;;;;;;;;;;;;;;-148.56;100.00;61375.16;5025641;28;20590;-28
2022/08/25 12:05:09;;;;;;;4.15;3.00;;;;;;;-148.56;100.00;61375.16;5025617;28;20010;-27
2022/08/25 12:09:04;;;;;;;4.72;3.28;;;;;;;-148.56;100.00;61375.16;5026131;28;20032;-27
2022/08/25 12:13:00;;;;;;;3.53;3.10;;;;;;;-148.56;100.00;61375.16;5027312;28;20029;-29
2022/08/25 12:16:31;;;;;;;5.70;3.47;;;;;;;-148.56;100.00;61375.16;5025708;28;20164;-31
2022/08/25 12:20:15;;;;;;;3.20;2.65;;;;;;;-148.56;100.00;61375.16;5027567;28;20037;-30
2022/08/25 12:23:58;;;;;;;3.53;2.72;;;;;;;-148.56;100.00;61375.16;5031479;28;20034;-31
2022/08/25 12:27:42;;;;;;;4.60;3.10;;;;;;;-148.56;100.00;61375.16;5030357;28;20040;-27
2022/08/25 12:31:23;;;;;;;3.55;2.95;;;;;;;-148.56;100.00;61375.16;5024760;28;20041;-28
2022/08/25 12:35:02;;;;;;;3.25;2.92;;;;;;;-148.56;100.00;61375.16;5027587;28;20104;-27
2022/08/25 12:38:29;;;;;;;3.80;2.78;;;;;;;-148.56;100.00;61375.16;5025054;28;20091;-27
2022/08/25 12:42:02;;;;;;;3.22;2.70;;;;;;;-148.56;100.00;61375.16;5022644;28;20043;-27
2022/08/25 12:45:35;;;;;;;3.40;2.90;;;;;;;-148.56;100.00;61375.16;5025706;28;20041;-27
2022/08/25 12:49:33;;;;;;;3.92;2.90;;;;;;;-148.56;100.00;61375.16;5027483;28;20175;-27
2022/08/25 12:53:21;;;;;;;3.28;2.75;;;;;;;-148.56;100.00;61375.16;5020765;28;20567;-27
2022/08/25 12:56:52;;;;;;;3.45;2.80;;;;;;;-148.56;100.00;61375.16;5023404;28;20274;-28
2022/08/25 13:00:18;;;;;;;4.28;2.47;;;;;;;-148.56;100.00;61375.16;5024765;28;21685;-28
2022/08/25 13:04:07;;;;;;;2.95;2.40;;;;;;;-148.56;100.00;61375.16;5028335;28;20036;-27
2022/08/25 13:08:19;;;;;;;3.17;2.50;;;;;;;-148.56;100.00;61375.16;5027929;28;20035;-28
2022/08/25 13:12:01;;;;;;;3.38;2.85;;;;;;;-148.56;100.00;61375.16;5008278;28;20033;-27
2022/08/25 13:15:47;;;;;;;3.30;2.70;;;;;;;-148.56;100.00;61375.16;5029996;28;20037;-28
2022/08/25 13:19:18;;;;;;;3.05;2.67;;;;;;;-148.56;100.00;61375.16;5026371;28;20037;-28
2022/08/25 13:22:46;;;;;;;3.10;2.60;;;;;;;-148.56;100.00;61375.16;5031304;28;20040;-29
2022/08/25 13:26:14;;;;;;;2.80;2.40;;;;;;;-148.56;100.00;61375.16;5027767;28;20049;-27
2022/08/25 13:29:48;;;;;;;2.67;2.25;;;;;;;-148.56;100.00;61375.16;5026853;28;20539;-28
2022/08/25 13:33:16;;;;;;;3.28;2.40;;;;;;;-148.56;100.00;61375.16;5028459;28;20036;-27
2022/08/25 13:40:28;;;;;;;2.60;2.38;;;;;;;-148.56;100.00;61375.16;5029387;28;20041;-28
2022/08/25 13:43:59;;;;;;;4.22;2.35;;;;;;;-148.56;100.00;61375.16;5029237;28;20669;-28
2022/08/25 13:47:32;;;;;;;2.53;2.33;;;;;;;-148.56;100.00;61375.16;5023088;28;20033;-28
2022/08/25 13:51:22;;;;;;;2.63;2.33;;;;;;;-148.56;100.00;61375.16;5028473;28;20110;-27
2022/08/25 13:54:46;;;;;;;3.00;2.35;;;;;;;-148.56;100.00;61375.16;5029648;28;20164;-27
2022/08/25 13:58:16;;;;;;;2.80;2.38;;;;;;;-148.56;100.00;61375.16;5027713;28;20132;-28
2022/08/25 14:01:45;;;;;;;3.35;2.47;;;;;;;-148.56;100.00;61375.16;5029275;28;20593;-28
2022/08/25 14:05:48;;;;;;;2.22;2.03;;;;;;;-148.56;100.00;61375.16;5026828;28;20099;-27
2022/08/25 14:09:38;;;;;;;2.40;2.20;;;;;;;-148.56;100.00;61375.16;4991992;28;20091;-27
2022/08/25 14:13:11;;;;;;;2.38;2.10;;;;;;;-148.56;100.00;61375.16;5017605;28;20048;-28
2022/08/25 14:16:37;;;;;;;2.78;2.33;;;;;;;-148.56;100.00;61375.16;5028847;28;20056;-27
2022/08/25 14:20:01;;;;;;;2.72;1.98;;;;;;;-148.56;100.00;61375.16;5029687;28;20024;-28
2022/08/25 14:23:26;;;;;;;2.85;2.10;;;;;;;-148.56;100.00;61375.16;5030924;28;20052;-27
2022/08/25 14:26:50;;;;;;;2.78;2.00;;;;;;;-148.56;100.00;61375.16;5030366;28;20045;-28
2022/08/25 14:30:14;;;;;;;2.20;2.00;;;;;;;-148.56;100.00;61375.16;5027801;28;20523;-27
2022/08/25 14:33:42;;;;;;;2.92;2.10;;;;;;;-148.56;100.00;61375.16;5030725;28;20033;-28
2022/08/25 14:37:14;;;;;;;2.20;2.00;;;;;;;-148.56;100.00;61375.16;5029666;28;20485;-27
2022/08/25 14:40:38;;;;;;;2.20;2.00;;;;;;;-148.56;100.00;61375.16;5028432;28;20086;-27
2022/08/25 14:44:04;;;;;;;2.42;2.03;;;;;;;-148.56;100.00;61375.16;5028979;28;20972;-27
2022/08/25 14:47:29;;;;;;;2.20;1.80;;;;;;;-148.56;100.00;61375.16;5028201;28;21020;-27
2022/08/25 14:50:53;;;;;;;2.58;2.00;;;;;;;-148.56;100.00;61375.16;5028106;28;20074;-27
2022/08/25 14:54:17;;;;;;;2.03;1.83;;;;;;;-148.56;100.00;61375.16;5028068;28;20035;-27
2022/08/25 14:57:41;;;;;;;2.65;1.90;;;;;;;-148.56;100.00;61375.16;5028494;28;20691;-28
2022/08/25 15:01:05;;;;;;;2.17;1.70;;;;;;;-148.56;100.00;61375.16;5027512;28;20486;-27
2022/08/25 15:04:36;;;;;;;2.55;1.92;;;;;;;-148.56;100.00;61375.16;5029834;28;20036;-27
2022/08/25 15:11:50;;;;;;;1.92;1.65;;;;;;;-148.56;100.00;61375.16;5027177;28;20044;-28
2022/08/25 15:15:14;;;;;;;1.88;1.77;;;;;;;-148.56;100.00;61375.16;5029619;28;20175;-30
2022/08/25 15:18:38;;;;;;;2.88;1.80;;;;;;;-148.56;100.00;61375.16;5028297;28;20052;-28
2022/08/25 15:22:02;;;;;;;2.20;1.90;;;;;;;-148.56;100.00;61375.16;5028474;28;20044;-27
2022/08/25 15:25:26;;;;;;;1.70;1.60;;;;;;;-148.56;100.00;61375.16;5028347;28;20029;-28
2022/08/25 15:28:50;;;;;;;2.42;2.05;;;;;;;-148.56;100.00;61375.16;5028130;28;20336;-28
2022/08/25 15:32:14;;;;;;;2.15;1.90;;;;;;;-148.56;100.00;61375.16;5030951;28;20068;-27
2022/08/25 15:35:38;;;;;;;1.70;1.60;;;;;;;-148.56;100.00;61375.16;5021845;28;20116;-27
2022/08/25 15:39:02;;;;;;;2.00;1.80;;;;;;;-148.56;100.00;61375.16;5023759;28;20036;-28
2022/08/25 15:42:26;;;;;;;1.85;1.60;;;;;;;-148.56;100.00;61375.16;5021383;28;20039;-28
2022/08/25 15:45:50;;;;;;;2.15;1.80;;;;;;;-148.56;100.00;61375.16;5023015;28;20033;-29
2022/08/25 15:49:14;;;;;;;2.38;2.03;;;;;;;-148.56;100.00;61375.16;5023196;28;20033;-29
2022/08/25 15:52:38;;;;;;;6.03;1.90;;;;;;;-148.56;100.00;61375.16;5025758;28;20039;-29
2022/08/25 15:56:05;;;;;;;2.40;1.70;;;;;;;-148.56;100.00;61375.16;5027436;28;20040;-29
2022/08/25 15:59:30;;;;;;;2.58;1.88;;;;;;;-148.56;100.00;61375.16;5019856;28;20053;-29